createdAt,value
2022-12-17T00:00:28.175Z,62.27
2022-12-17T00:02:54.586Z,62.87
2022-12-17T00:05:21.343Z,62.00
2022-12-17T00:07:47.598Z,62.70
2022-12-17T00:10:13.841Z,62.80
2022-12-17T00:12:40.113Z,62.82
2022-12-17T00:15:06.352Z,62.72
2022-12-17T00:17:32.631Z,62.83
2022-12-17T00:19:58.899Z,61.51
2022-12-17T00:22:25.159Z,61.72
2022-12-17T00:24:51.445Z,61.61
2022-12-17T00:27:18.189Z,61.78
2022-12-17T00:29:44.454Z,62.23
2022-12-17T00:32:10.708Z,61.75
2022-12-17T00:34:36.953Z,61.02
2022-12-17T00:37:03.200Z,61.24
2022-12-17T00:39:29.449Z,61.30
2022-12-17T00:41:55.697Z,61.43
2022-12-17T00:44:22.440Z,61.43
2022-12-17T00:46:48.738Z,61.28
2022-12-17T00:49:15.102Z,61.06
2022-12-17T00:51:41.464Z,60.97
2022-12-17T00:54:07.705Z,61.61
2022-12-17T00:56:33.956Z,61.72
2022-12-17T00:59:00.198Z,61.61
2022-12-17T01:01:26.659Z,61.27
2022-12-17T01:03:53.077Z,61.10
2022-12-17T01:06:20.120Z,61.27
2022-12-17T01:08:46.375Z,61.86
2022-12-17T01:11:12.619Z,61.72
2022-12-17T01:13:39.328Z,61.52
2022-12-17T01:16:05.810Z,61.23
2022-12-17T01:18:32.145Z,61.11
2022-12-17T01:20:58.392Z,61.46
2022-12-17T01:23:24.651Z,61.25
2022-12-17T01:25:50.917Z,61.56
2022-12-17T01:28:18.308Z,61.02
2022-12-17T01:30:44.545Z,61.78
2022-12-17T01:33:10.797Z,60.89
2022-12-17T01:35:37.048Z,61.88
2022-12-17T01:38:03.294Z,61.46
2022-12-17T01:40:29.569Z,61.59
2022-12-17T01:42:55.831Z,61.25
2022-12-17T01:45:22.072Z,61.34
2022-12-17T01:47:48.333Z,61.54
2022-12-17T01:50:14.589Z,61.89
2022-12-17T01:52:40.826Z,61.31
2022-12-17T01:55:07.126Z,60.93
2022-12-17T01:57:33.369Z,60.90
2022-12-17T01:59:59.636Z,61.25
2022-12-17T02:02:25.956Z,62.46
2022-12-17T02:04:52.325Z,61.74
2022-12-17T02:07:18.623Z,61.98
2022-12-17T02:09:44.926Z,61.61
2022-12-17T02:12:11.169Z,61.79
2022-12-17T02:14:37.411Z,61.78
2022-12-17T02:17:03.663Z,61.27
2022-12-17T02:19:29.924Z,61.75
2022-12-17T02:21:56.169Z,61.26
2022-12-17T02:24:22.509Z,60.97
2022-12-17T02:26:48.762Z,61.13
2022-12-17T02:29:15.006Z,60.82
2022-12-17T02:31:41.341Z,61.45
2022-12-17T02:34:07.613Z,61.20
2022-12-17T02:36:33.876Z,60.99
2022-12-17T02:39:00.121Z,60.33
2022-12-17T02:41:26.369Z,60.26
2022-12-17T02:43:52.651Z,60.60
2022-12-17T02:46:19.001Z,60.71
2022-12-17T02:48:45.313Z,61.42
2022-12-17T02:51:11.554Z,60.76
2022-12-17T02:53:38.098Z,61.51
2022-12-17T02:56:04.535Z,61.54
2022-12-17T02:58:30.801Z,61.53
2022-12-17T03:00:57.094Z,60.98
2022-12-17T03:03:23.456Z,60.75
2022-12-17T03:05:49.740Z,60.94
2022-12-17T03:08:15.981Z,60.95
2022-12-17T03:10:42.231Z,60.96
2022-12-17T03:13:08.484Z,60.70
2022-12-17T03:15:34.766Z,61.18
2022-12-17T03:18:01.007Z,60.73
2022-12-17T03:20:27.313Z,60.88
2022-12-17T03:22:53.553Z,61.37
2022-12-17T03:25:19.824Z,61.12
2022-12-17T03:27:46.087Z,60.67
2022-12-17T03:30:12.326Z,60.68
2022-12-17T03:32:38.577Z,61.03
2022-12-17T03:35:04.839Z,60.82
2022-12-17T03:37:31.110Z,60.87
2022-12-17T03:39:57.365Z,61.11
2022-12-17T03:42:23.616Z,61.35
2022-12-17T03:44:49.865Z,60.39
2022-12-17T03:47:16.124Z,60.98
2022-12-17T03:49:42.369Z,60.30
2022-12-17T03:52:08.633Z,60.15
2022-12-17T03:54:34.904Z,60.56
2022-12-17T03:57:01.160Z,60.61
2022-12-17T03:59:27.405Z,60.70
2022-12-17T04:01:53.856Z,60.39
2022-12-17T04:04:20.156Z,60.52
2022-12-17T04:06:46.394Z,60.75
2022-12-17T04:09:12.652Z,60.50
2022-12-17T04:11:38.946Z,60.87
2022-12-17T04:14:05.193Z,61.66
2022-12-17T04:16:31.443Z,60.81
2022-12-17T04:18:57.692Z,61.09
2022-12-17T04:21:23.950Z,61.23
2022-12-17T04:23:50.215Z,60.98
2022-12-17T04:26:16.506Z,61.80
2022-12-17T04:28:42.763Z,61.81
2022-12-17T04:31:09.076Z,61.03
2022-12-17T04:33:35.787Z,61.94
2022-12-17T04:36:02.375Z,61.87
2022-12-17T04:38:28.638Z,61.29
2022-12-17T04:40:54.897Z,61.31
2022-12-17T04:43:21.154Z,61.18
2022-12-17T04:45:47.394Z,61.63
2022-12-17T04:48:13.677Z,61.46
2022-12-17T04:50:39.983Z,61.08
2022-12-17T04:53:06.227Z,60.95
2022-12-17T04:55:32.497Z,61.42
2022-12-17T04:57:58.747Z,60.09
2022-12-17T05:00:25.020Z,60.47
2022-12-17T05:02:51.429Z,60.14
2022-12-17T05:05:17.873Z,60.46
2022-12-17T05:07:44.130Z,60.58
2022-12-17T05:10:10.402Z,60.52
2022-12-17T05:12:36.643Z,60.77
2022-12-17T05:15:02.883Z,61.28
2022-12-17T05:17:29.132Z,61.20
2022-12-17T05:19:55.379Z,60.57
2022-12-17T05:22:21.733Z,60.58
2022-12-17T05:24:48.003Z,60.84
2022-12-17T05:27:14.292Z,61.09
2022-12-17T05:29:40.557Z,61.68
2022-12-17T05:32:06.851Z,61.32
2022-12-17T05:34:33.098Z,61.76
2022-12-17T05:36:59.358Z,61.73
2022-12-17T05:39:25.648Z,61.35
2022-12-17T05:41:51.914Z,60.95
2022-12-17T05:44:18.156Z,60.74
2022-12-17T05:46:44.454Z,61.98
2022-12-17T05:49:10.747Z,61.69
2022-12-17T05:51:38.807Z,61.25
2022-12-17T05:54:05.430Z,60.95
2022-12-17T05:56:31.686Z,60.24
2022-12-17T05:58:57.932Z,60.72
2022-12-17T06:01:24.265Z,60.84
2022-12-17T06:03:50.728Z,60.22
2022-12-17T06:06:17.106Z,60.78
2022-12-17T06:08:43.356Z,60.06
2022-12-17T06:11:09.592Z,60.77
2022-12-17T06:13:36.162Z,59.73
2022-12-17T06:16:02.688Z,60.08
2022-12-17T06:18:28.990Z,59.75
2022-12-17T06:20:55.263Z,60.41
2022-12-17T06:23:21.530Z,60.48
2022-12-17T06:25:47.768Z,60.39
2022-12-17T06:28:14.026Z,60.36
2022-12-17T06:30:40.265Z,60.09
2022-12-17T06:33:06.521Z,60.50
2022-12-17T06:35:32.777Z,60.15
2022-12-17T06:37:59.121Z,59.98
2022-12-17T06:40:25.400Z,60.42
2022-12-17T06:42:51.646Z,60.14
2022-12-17T06:45:18.022Z,59.94
2022-12-17T06:47:44.289Z,60.19
2022-12-17T06:50:10.543Z,60.24
2022-12-17T06:52:36.811Z,60.52
2022-12-17T06:55:03.054Z,60.81
2022-12-17T06:57:29.305Z,60.18
2022-12-17T06:59:55.554Z,61.16
2022-12-17T07:02:21.963Z,60.63
2022-12-17T07:04:48.321Z,59.68
2022-12-17T07:07:14.585Z,60.63
2022-12-17T07:09:40.845Z,60.02
2022-12-17T07:12:07.151Z,60.51
2022-12-17T07:14:33.415Z,60.96
2022-12-17T07:16:59.675Z,60.75
2022-12-17T07:19:27.585Z,60.77
2022-12-17T07:21:54.088Z,61.40
2022-12-17T07:24:20.342Z,60.19
2022-12-17T07:26:46.577Z,60.57
2022-12-17T07:29:12.820Z,61.01
2022-12-17T07:31:39.260Z,60.93
2022-12-17T07:34:05.532Z,60.87
2022-12-17T07:36:31.781Z,61.19
2022-12-17T07:38:58.029Z,61.26
2022-12-17T07:41:24.267Z,61.45
2022-12-17T07:43:53.122Z,61.86
2022-12-17T07:46:19.869Z,61.65
2022-12-17T07:48:46.145Z,61.64
2022-12-17T07:51:12.431Z,61.25
2022-12-17T07:53:38.960Z,61.37
2022-12-17T07:56:05.350Z,61.58
2022-12-17T07:58:31.618Z,61.86
2022-12-17T08:00:58.000Z,61.69
2022-12-17T08:03:24.361Z,61.61
2022-12-17T08:05:50.660Z,61.43
2022-12-17T08:08:16.930Z,61.68
2022-12-17T08:10:43.177Z,61.32
2022-12-17T08:13:13.898Z,61.60
2022-12-17T08:15:40.532Z,61.55
2022-12-17T08:18:06.793Z,61.08
2022-12-17T08:20:33.077Z,60.73
2022-12-17T08:22:59.337Z,61.64
2022-12-17T08:25:25.592Z,61.62
2022-12-17T08:27:51.960Z,61.74
2022-12-17T08:30:18.202Z,61.49
2022-12-17T08:32:44.459Z,61.00
2022-12-17T08:35:10.722Z,60.73
2022-12-17T08:37:36.975Z,61.05
2022-12-17T08:40:03.235Z,61.17
2022-12-17T08:42:29.575Z,61.53
2022-12-17T08:44:55.888Z,61.05
2022-12-17T08:47:23.506Z,61.28
2022-12-17T08:49:49.852Z,61.37
2022-12-17T08:52:16.120Z,60.93
2022-12-17T08:54:42.369Z,60.84
2022-12-17T08:57:08.621Z,60.91
2022-12-17T08:59:34.877Z,61.42
2022-12-17T09:02:01.253Z,61.11
2022-12-17T09:04:27.704Z,61.66
2022-12-17T09:06:53.968Z,61.20
2022-12-17T09:09:20.205Z,60.57
2022-12-17T09:11:46.474Z,61.03
2022-12-17T09:14:12.718Z,60.41
2022-12-17T09:16:39.016Z,60.67
2022-12-17T09:19:05.292Z,60.25
2022-12-17T09:21:31.538Z,61.09
2022-12-17T09:23:57.782Z,60.79
2022-12-17T09:26:24.018Z,61.52
2022-12-17T09:28:50.265Z,61.47
2022-12-17T09:31:16.545Z,61.16
2022-12-17T09:33:42.829Z,59.88
2022-12-17T09:36:09.069Z,60.97
2022-12-17T09:38:35.336Z,61.43
2022-12-17T09:41:01.577Z,60.93
2022-12-17T09:43:27.828Z,60.93
2022-12-17T09:45:54.093Z,60.91
2022-12-17T09:48:20.342Z,60.05
2022-12-17T09:50:46.586Z,60.08
2022-12-17T09:53:12.844Z,59.82
2022-12-17T09:55:39.118Z,60.63
2022-12-17T09:58:05.373Z,60.59
2022-12-17T10:00:31.638Z,60.48
2022-12-17T10:02:58.110Z,61.50
2022-12-17T10:05:24.571Z,60.96
2022-12-17T10:07:50.811Z,61.42
2022-12-17T10:10:17.082Z,60.96
2022-12-17T10:12:43.325Z,61.41
2022-12-17T10:15:09.584Z,60.71
2022-12-17T10:17:35.835Z,61.52
2022-12-17T10:20:02.093Z,61.58
2022-12-17T10:22:28.350Z,61.27
2022-12-17T10:24:54.620Z,60.63
2022-12-17T10:27:20.862Z,61.17
2022-12-17T10:29:48.503Z,61.06
2022-12-17T10:32:14.888Z,60.84
2022-12-17T10:34:41.135Z,61.39
2022-12-17T10:37:07.403Z,62.03
2022-12-17T10:39:33.669Z,61.92
2022-12-17T10:41:59.909Z,61.90
2022-12-17T10:44:26.165Z,61.39
2022-12-17T10:46:52.590Z,61.93
2022-12-17T10:49:18.910Z,61.48
2022-12-17T10:51:45.185Z,61.74
2022-12-17T10:54:11.422Z,61.17
2022-12-17T10:56:37.663Z,61.81
2022-12-17T10:59:03.917Z,60.79
2022-12-17T11:01:30.211Z,60.67
2022-12-17T11:03:56.604Z,61.23
2022-12-17T11:06:22.875Z,60.79
2022-12-17T11:08:49.113Z,60.75
2022-12-17T11:11:15.362Z,60.13
2022-12-17T11:13:41.645Z,60.66
2022-12-17T11:16:07.959Z,60.59
2022-12-17T11:18:34.214Z,60.64
2022-12-17T11:21:00.455Z,60.97
2022-12-17T11:23:26.713Z,60.25
2022-12-17T11:25:53.073Z,60.93
2022-12-17T11:28:19.333Z,61.37
2022-12-17T11:30:45.597Z,61.27
2022-12-17T11:33:11.868Z,60.64
2022-12-17T11:35:38.137Z,60.43
2022-12-17T11:38:04.381Z,60.80
2022-12-17T11:40:30.637Z,60.91
2022-12-17T11:42:56.886Z,60.91
2022-12-17T11:45:23.148Z,60.53
2022-12-17T11:47:49.386Z,61.30
2022-12-17T11:50:15.643Z,61.54
2022-12-17T11:52:41.895Z,60.75
2022-12-17T11:55:08.264Z,61.22
2022-12-17T11:57:34.509Z,60.91
2022-12-17T12:00:04.017Z,60.84
2022-12-17T12:02:30.892Z,61.51
2022-12-17T12:04:57.220Z,61.34
2022-12-17T12:07:23.476Z,61.20
2022-12-17T12:09:49.729Z,60.78
2022-12-17T12:12:15.966Z,61.76
2022-12-17T12:14:42.218Z,61.39
2022-12-17T12:17:08.506Z,61.65
2022-12-17T12:19:34.769Z,60.96
2022-12-17T12:22:01.029Z,61.10
2022-12-17T12:24:27.294Z,60.74
2022-12-17T12:26:53.559Z,60.80
2022-12-17T12:29:19.809Z,60.54
2022-12-17T12:31:46.121Z,60.51
2022-12-17T12:34:12.398Z,60.93
2022-12-17T12:36:38.651Z,60.15
2022-12-17T12:39:04.923Z,60.89
2022-12-17T12:41:31.166Z,60.93
2022-12-17T12:43:57.415Z,61.20
2022-12-17T12:46:23.702Z,60.95
2022-12-17T12:48:49.981Z,61.48
2022-12-17T12:51:16.228Z,61.38
2022-12-17T12:53:42.482Z,60.85
2022-12-17T12:56:08.722Z,61.05
2022-12-17T12:58:35.447Z,61.38
2022-12-17T13:01:01.963Z,61.52
2022-12-17T13:03:31.923Z,61.26
2022-12-17T13:05:59.994Z,62.04
2022-12-17T13:08:26.230Z,61.67
2022-12-17T13:10:52.634Z,61.42
2022-12-17T13:13:18.900Z,61.48
2022-12-17T13:15:45.146Z,61.15
2022-12-17T13:18:12.560Z,61.43
2022-12-17T13:20:38.833Z,61.15
2022-12-17T13:23:05.083Z,61.32
2022-12-17T13:25:31.355Z,61.79
2022-12-17T13:27:57.611Z,61.71
2022-12-17T13:30:23.870Z,61.81
2022-12-17T13:32:50.182Z,61.72
2022-12-17T13:35:16.455Z,61.24
2022-12-17T13:37:42.723Z,61.81
2022-12-17T13:40:08.982Z,61.65
2022-12-17T13:42:35.241Z,61.53
2022-12-17T13:45:01.493Z,61.64
2022-12-17T13:47:27.738Z,61.67
2022-12-17T13:50:31.491Z,62.09
2022-12-17T13:52:40.216Z,62.42
2022-12-17T13:55:06.471Z,62.53
2022-12-17T13:57:32.725Z,62.36
2022-12-17T13:59:58.968Z,61.85
2022-12-17T14:02:25.392Z,61.57
2022-12-17T14:04:51.701Z,61.85
2022-12-17T14:07:18.958Z,62.30
2022-12-17T14:09:45.218Z,62.47
2022-12-17T14:12:11.457Z,61.89
2022-12-17T14:14:37.702Z,62.63
2022-12-17T14:17:03.973Z,62.47
2022-12-17T14:19:30.239Z,62.43
2022-12-17T14:21:56.480Z,61.78
2022-12-17T14:24:22.717Z,61.72
2022-12-17T14:26:48.962Z,61.26
2022-12-17T14:29:15.202Z,61.70
2022-12-17T14:31:41.462Z,62.06
2022-12-17T14:34:08.285Z,61.88
2022-12-17T14:36:34.745Z,61.67
2022-12-17T14:39:01.001Z,62.15
2022-12-17T14:41:27.247Z,61.83
2022-12-17T14:43:53.485Z,61.80
2022-12-17T14:46:19.789Z,62.00
2022-12-17T14:48:46.086Z,61.73
2022-12-17T14:51:12.341Z,60.92
2022-12-17T14:53:38.590Z,61.15
2022-12-17T14:56:04.833Z,61.17
2022-12-17T14:58:31.087Z,61.16
2022-12-17T15:00:57.363Z,61.66
2022-12-17T15:03:23.821Z,61.57
2022-12-17T15:05:50.138Z,61.27
2022-12-17T15:08:16.396Z,61.03
2022-12-17T15:10:42.653Z,61.21
2022-12-17T15:13:08.917Z,61.77
2022-12-17T15:15:35.166Z,61.68
2022-12-17T15:18:01.421Z,61.98
2022-12-17T15:20:27.665Z,61.16
2022-12-17T15:22:53.898Z,61.59
2022-12-17T15:25:20.260Z,61.43
2022-12-17T15:27:46.514Z,61.87
2022-12-17T15:30:12.771Z,62.37
2022-12-17T15:32:39.025Z,61.52
2022-12-17T15:35:05.276Z,61.66
2022-12-17T15:37:31.541Z,61.83
2022-12-17T15:39:57.797Z,62.16
2022-12-17T15:42:24.067Z,62.14
2022-12-17T15:44:50.324Z,62.37
2022-12-17T15:47:16.567Z,62.65
2022-12-17T15:49:42.812Z,62.33
2022-12-17T15:52:09.053Z,62.59
2022-12-17T15:54:35.315Z,62.51
2022-12-17T15:57:01.562Z,63.08
2022-12-17T15:59:27.825Z,63.25
2022-12-17T16:01:54.176Z,62.27
2022-12-17T16:04:25.008Z,62.68
2022-12-17T16:06:51.780Z,62.86
2022-12-17T16:09:18.041Z,62.34
2022-12-17T16:11:44.287Z,62.15
2022-12-17T16:14:10.523Z,62.80
2022-12-17T16:16:36.776Z,62.62
2022-12-17T16:19:03.025Z,62.21
2022-12-17T16:21:29.278Z,62.46
2022-12-17T16:23:55.533Z,62.57
2022-12-17T16:26:21.784Z,62.22
2022-12-17T16:28:48.064Z,62.42
2022-12-17T16:31:14.390Z,62.97
2022-12-17T16:33:40.668Z,62.88
2022-12-17T16:36:06.924Z,63.35
2022-12-17T16:38:33.307Z,62.79
2022-12-17T16:40:59.623Z,62.88
2022-12-17T16:43:25.896Z,62.25
2022-12-17T16:45:52.157Z,62.36
2022-12-17T16:48:19.341Z,62.65
2022-12-17T16:50:45.596Z,62.37
2022-12-17T16:53:11.841Z,62.33
2022-12-17T16:55:38.105Z,62.46
2022-12-17T16:58:04.354Z,62.04
2022-12-17T17:00:30.702Z,62.25
2022-12-17T17:02:57.136Z,62.04
2022-12-17T17:05:23.486Z,62.21
2022-12-17T17:07:49.754Z,62.94
2022-12-17T17:10:16.011Z,62.61
2022-12-17T17:12:42.258Z,62.87
2022-12-17T17:15:08.612Z,62.53
2022-12-17T17:17:55.058Z,62.76
2022-12-17T17:20:21.125Z,62.78
2022-12-17T17:22:47.384Z,63.00
2022-12-17T17:25:13.635Z,62.96
2022-12-17T17:27:39.922Z,63.26
2022-12-17T17:30:06.176Z,63.70
2022-12-17T17:32:32.495Z,62.67
2022-12-17T17:34:58.779Z,63.01
2022-12-17T17:37:25.038Z,63.39
2022-12-17T17:39:51.311Z,62.72
2022-12-17T17:42:17.553Z,62.76
2022-12-17T17:44:43.794Z,63.38
2022-12-17T17:47:10.184Z,62.95
2022-12-17T17:49:36.449Z,63.27
2022-12-17T17:52:10.942Z,63.33
2022-12-17T17:54:37.770Z,63.31
2022-12-17T17:57:04.036Z,63.52
2022-12-17T17:59:33.736Z,63.07
2022-12-17T18:02:00.834Z,63.44
2022-12-17T18:04:27.281Z,63.64
2022-12-17T18:07:23.824Z,63.40
2022-12-17T18:09:39.813Z,62.66
2022-12-17T18:12:06.273Z,62.73
2022-12-17T18:14:37.649Z,63.13
2022-12-17T18:17:08.328Z,63.55
2022-12-17T18:19:34.588Z,63.52
2022-12-17T18:22:00.849Z,63.53
2022-12-17T18:24:27.192Z,63.28
2022-12-17T18:26:53.468Z,63.25
2022-12-17T18:29:19.765Z,63.08
2022-12-17T18:31:51.548Z,63.43
2022-12-17T18:34:18.345Z,63.41
2022-12-17T18:36:44.621Z,62.96
2022-12-17T18:39:10.879Z,62.87
2022-12-17T18:41:37.140Z,63.53
2022-12-17T18:44:03.379Z,63.59
2022-12-17T18:46:29.650Z,62.85
2022-12-17T18:48:55.950Z,62.70
2022-12-17T18:51:22.215Z,62.90
2022-12-17T18:53:48.459Z,63.21
2022-12-17T18:56:23.010Z,62.70
2022-12-17T18:59:00.930Z,62.86
2022-12-17T19:01:27.336Z,63.20
2022-12-17T19:03:53.700Z,62.99
2022-12-17T19:06:19.957Z,63.28
2022-12-17T19:08:46.214Z,62.88
2022-12-17T19:11:12.469Z,62.52
2022-12-17T19:13:38.731Z,62.59
2022-12-17T19:16:05.035Z,62.93
2022-12-17T19:18:31.300Z,62.42
2022-12-17T19:20:57.554Z,62.94
2022-12-17T19:23:25.016Z,62.77
2022-12-17T19:25:53.890Z,63.35
2022-12-17T19:28:20.916Z,62.54
2022-12-17T19:30:47.165Z,62.44
2022-12-17T19:33:13.429Z,62.55
2022-12-17T19:35:39.670Z,63.03
2022-12-17T19:38:05.925Z,62.91
2022-12-17T19:40:32.182Z,62.91
2022-12-17T19:42:58.428Z,63.36
2022-12-17T19:45:24.695Z,63.56
2022-12-17T19:47:50.971Z,63.41
2022-12-17T19:50:17.212Z,62.93
2022-12-17T19:52:43.468Z,63.01
2022-12-17T19:55:09.736Z,62.92
2022-12-17T19:57:36.003Z,63.31
2022-12-17T20:00:02.255Z,63.00
2022-12-17T20:02:32.481Z,63.09
2022-12-17T20:04:58.959Z,62.88
2022-12-17T20:07:25.209Z,63.58
2022-12-17T20:09:51.458Z,63.27
2022-12-17T20:12:17.716Z,63.61
2022-12-17T20:14:43.958Z,63.38
2022-12-17T20:17:10.239Z,63.55
2022-12-17T20:19:36.553Z,62.58
2022-12-17T20:22:02.795Z,63.64
2022-12-17T20:24:31.646Z,63.36
2022-12-17T20:26:58.431Z,63.29
2022-12-17T20:29:24.699Z,63.32
2022-12-17T20:31:50.994Z,63.18
2022-12-17T20:34:17.261Z,63.43
2022-12-17T20:36:43.532Z,63.04
2022-12-17T20:39:09.795Z,63.20
2022-12-17T20:41:36.048Z,62.82
2022-12-17T20:44:02.317Z,62.83
2022-12-17T20:46:28.622Z,63.00
2022-12-17T20:48:54.943Z,63.32
2022-12-17T20:51:21.649Z,62.48
2022-12-17T20:53:47.905Z,62.71
2022-12-17T20:56:14.147Z,62.90
2022-12-17T20:58:40.763Z,62.69
2022-12-17T21:01:07.318Z,62.69
2022-12-17T21:03:33.648Z,63.07
2022-12-17T21:05:59.925Z,62.88
2022-12-17T21:08:26.198Z,63.28
2022-12-17T21:10:52.560Z,63.06
2022-12-17T21:13:18.802Z,63.07
2022-12-17T21:15:45.649Z,63.06
2022-12-17T21:18:12.379Z,62.75
2022-12-17T21:20:38.625Z,63.58
2022-12-17T21:23:05.213Z,62.86
2022-12-17T21:25:31.466Z,63.03
2022-12-17T21:27:57.729Z,63.32
2022-12-17T21:30:23.965Z,63.07
2022-12-17T21:32:50.218Z,63.00
2022-12-17T21:35:16.540Z,63.07
2022-12-17T21:37:43.779Z,63.63
2022-12-17T21:40:10.774Z,63.26
2022-12-17T21:42:37.011Z,63.65
2022-12-17T21:45:03.279Z,63.47
2022-12-17T21:47:29.738Z,63.01
2022-12-17T21:49:55.988Z,63.49
2022-12-17T21:52:22.225Z,63.08
2022-12-17T21:54:48.489Z,63.13
2022-12-17T21:57:14.735Z,63.52
2022-12-17T21:59:41.561Z,63.19
2022-12-17T22:02:07.963Z,63.11
2022-12-17T22:04:34.524Z,63.40
2022-12-17T22:07:03.809Z,63.69
2022-12-17T22:10:27.993Z,63.36
2022-12-17T22:12:24.044Z,63.87
2022-12-17T22:14:50.402Z,63.23
2022-12-17T22:17:16.646Z,63.21
2022-12-17T22:19:42.903Z,63.66
2022-12-17T22:22:09.164Z,63.19
2022-12-17T22:24:36.441Z,63.81
2022-12-17T22:27:03.074Z,63.07
2022-12-17T22:29:29.344Z,63.75
2022-12-17T22:31:55.609Z,63.42
2022-12-17T22:35:23.610Z,63.44
2022-12-17T22:38:57.700Z,63.44
2022-12-17T22:44:32.239Z,63.26
2022-12-17T22:44:42.777Z,63.44
2022-12-17T22:45:27.304Z,63.27
2022-12-17T22:47:53.563Z,63.58
2022-12-17T22:50:23.163Z,63.14
2022-12-17T22:52:53.776Z,63.68
2022-12-17T22:55:20.430Z,62.71
2022-12-17T22:57:46.911Z,62.74
2022-12-17T23:00:13.248Z,62.74
2022-12-17T23:02:39.559Z,63.41
2022-12-17T23:05:05.838Z,63.58
2022-12-17T23:07:32.272Z,63.63
2022-12-17T23:09:58.556Z,63.10
2022-12-17T23:12:24.833Z,63.50
2022-12-17T23:14:51.091Z,63.24
2022-12-17T23:17:17.337Z,63.42
2022-12-17T23:19:43.578Z,62.99
2022-12-17T23:22:09.844Z,63.17
2022-12-17T23:24:36.105Z,62.73
2022-12-17T23:27:02.346Z,63.33
2022-12-17T23:29:28.627Z,62.87
2022-12-17T23:31:54.877Z,63.08
2022-12-17T23:34:21.120Z,63.20
2022-12-17T23:36:47.374Z,63.53
2022-12-17T23:39:13.703Z,63.36
2022-12-17T23:41:40.126Z,63.18
2022-12-17T23:44:06.389Z,63.21
2022-12-17T23:46:32.657Z,63.35
2022-12-17T23:48:58.969Z,63.61
2022-12-17T23:51:25.210Z,63.68
2022-12-17T23:53:51.520Z,62.92
2022-12-17T23:56:17.819Z,62.95
2022-12-17T23:58:44.098Z,63.52
